createdAt,value
2023-01-17T00:02:14.280Z,5.65
2023-01-17T00:07:36.850Z,5.67
2023-01-17T00:12:39.121Z,5.71
2023-01-17T00:17:40.766Z,5.68
2023-01-17T00:23:02.385Z,5.68
2023-01-17T00:28:04.695Z,5.75
2023-01-17T00:33:06.353Z,5.65
2023-01-17T00:38:10.209Z,5.44
2023-01-17T00:43:31.484Z,5.43
2023-01-17T00:48:51.719Z,5.26
2023-01-17T00:54:13.425Z,5.12
2023-01-17T00:59:33.687Z,5.04
2023-01-17T01:04:53.960Z,5.10
2023-01-17T01:10:15.464Z,5.15
2023-01-17T01:15:35.725Z,5.23
2023-01-17T01:20:55.985Z,5.31
2023-01-17T01:26:17.526Z,5.29
2023-01-17T01:31:37.900Z,5.28
2023-01-17T01:36:39.576Z,5.34
2023-01-17T01:41:42.591Z,5.39
2023-01-17T01:46:44.280Z,5.38
2023-01-17T01:51:47.349Z,5.44
2023-01-17T01:56:50.360Z,5.43
2023-01-17T02:01:53.170Z,5.37
2023-01-17T02:06:57.912Z,5.25
2023-01-17T02:12:00.915Z,5.11
2023-01-17T02:17:06.819Z,5.12
2023-01-17T02:22:19.930Z,4.98
2023-01-17T02:27:25.587Z,4.93
2023-01-17T02:32:33.704Z,5.00
2023-01-17T02:37:39.296Z,4.97
2023-01-17T02:42:43.600Z,4.92
2023-01-17T02:47:46.604Z,4.93
2023-01-17T02:53:02.818Z,4.92
2023-01-17T02:58:08.916Z,4.83
2023-01-17T03:03:14.597Z,4.77
2023-01-17T03:08:16.289Z,4.75
2023-01-17T03:13:18.049Z,4.72
2023-01-17T03:18:21.075Z,4.73
2023-01-17T03:23:22.747Z,4.63
2023-01-17T03:28:24.435Z,4.50
2023-01-17T03:33:27.557Z,4.50
2023-01-17T03:38:30.342Z,4.46
2023-01-17T03:43:32.028Z,4.53
2023-01-17T03:48:35.134Z,4.46
2023-01-17T03:53:36.827Z,4.35
2023-01-17T03:58:38.564Z,4.40
2023-01-17T04:03:41.563Z,4.34
2023-01-17T04:08:43.254Z,4.38
2023-01-17T04:13:44.904Z,4.41
2023-01-17T04:18:47.931Z,4.43
2023-01-17T04:23:49.639Z,4.41
2023-01-17T04:28:51.345Z,4.44
2023-01-17T04:33:54.342Z,4.42
2023-01-17T04:38:55.985Z,4.47
2023-01-17T04:43:57.746Z,4.50
2023-01-17T04:49:00.709Z,4.54
2023-01-17T04:54:02.337Z,4.54
2023-01-17T04:59:04.127Z,4.62
2023-01-17T05:04:07.231Z,4.73
2023-01-17T05:09:08.961Z,4.71
2023-01-17T05:14:10.976Z,4.68
2023-01-17T05:19:14.014Z,4.61
2023-01-17T05:24:15.652Z,4.56
2023-01-17T05:29:17.309Z,4.52
2023-01-17T05:34:20.383Z,4.52
2023-01-17T05:39:22.058Z,4.53
2023-01-17T05:44:23.789Z,4.51
2023-01-17T05:49:26.799Z,4.36
2023-01-17T05:54:28.444Z,5.16
2023-01-17T05:59:36.940Z,5.97
2023-01-17T06:04:40.687Z,6.21
2023-01-17T06:09:42.409Z,5.96
2023-01-17T06:14:44.122Z,5.05
2023-01-17T06:19:47.123Z,4.66
2023-01-17T06:24:48.784Z,4.39
2023-01-17T06:29:50.527Z,4.24
2023-01-17T06:34:53.571Z,4.02
2023-01-17T06:39:55.520Z,3.85
2023-01-17T06:44:57.211Z,3.75
2023-01-17T06:50:01.280Z,3.64
2023-01-17T06:55:02.983Z,3.59
2023-01-17T07:00:06.011Z,3.51
2023-01-17T07:05:09.872Z,3.34
2023-01-17T07:10:11.639Z,3.34
2023-01-17T07:15:13.332Z,3.37
2023-01-17T07:20:16.531Z,3.42
2023-01-17T07:25:18.717Z,3.42
2023-01-17T07:30:20.592Z,3.38
2023-01-17T07:35:23.912Z,3.31
2023-01-17T07:40:25.620Z,3.32
2023-01-17T07:45:27.418Z,3.28
2023-01-17T07:50:31.297Z,3.19
2023-01-17T07:55:33.456Z,3.13
2023-01-17T08:00:35.237Z,3.11
2023-01-17T08:05:38.295Z,3.06
2023-01-17T08:10:40.979Z,3.03
2023-01-17T08:15:42.884Z,3.03
2023-01-17T08:20:47.003Z,3.12
2023-01-17T08:25:50.255Z,3.19
2023-01-17T08:30:52.167Z,3.22
2023-01-17T08:35:55.485Z,3.24
2023-01-17T08:41:00.458Z,3.19
2023-01-17T08:46:03.943Z,3.29
2023-01-17T08:51:07.791Z,3.41
2023-01-17T08:56:10.192Z,3.59
2023-01-17T09:01:13.245Z,3.68
2023-01-17T09:06:17.101Z,3.77
2023-01-17T09:11:19.659Z,3.76
2023-01-17T09:16:22.486Z,3.79
2023-01-17T09:21:26.059Z,3.90
2023-01-17T09:26:28.566Z,3.94
2023-01-17T09:31:30.526Z,4.08
2023-01-17T09:36:33.954Z,4.08
2023-01-17T09:41:36.759Z,4.20
2023-01-17T09:46:39.912Z,4.42
2023-01-17T09:51:43.219Z,4.48
2023-01-17T09:56:46.620Z,4.44
2023-01-17T10:01:53.992Z,5.76
2023-01-17T10:07:04.543Z,6.17
2023-01-17T10:12:16.807Z,10.14
2023-01-17T10:17:22.667Z,12.82
2023-01-17T10:22:32.840Z,12.77
2023-01-17T10:27:37.005Z,11.77
2023-01-17T10:32:39.165Z,9.66
2023-01-17T10:37:43.261Z,8.51
2023-01-17T10:42:52.701Z,7.93
2023-01-17T10:48:02.270Z,7.68
2023-01-17T10:53:08.297Z,7.18
2023-01-17T10:58:13.073Z,6.73
2023-01-17T11:03:16.347Z,6.71
2023-01-17T11:08:22.058Z,6.95
2023-01-17T11:13:26.164Z,6.60
2023-01-17T11:18:29.636Z,6.22
2023-01-17T11:23:34.343Z,6.14
2023-01-17T11:28:37.064Z,6.14
2023-01-17T11:33:45.571Z,6.01
2023-01-17T11:38:59.553Z,5.89
2023-01-17T11:44:03.022Z,5.67
2023-01-17T11:49:05.080Z,5.73
2023-01-17T11:54:15.528Z,5.60
2023-01-17T11:59:26.864Z,5.54
2023-01-17T12:04:31.723Z,5.68
2023-01-17T12:09:38.880Z,5.60
2023-01-17T12:14:45.349Z,6.00
2023-01-17T12:20:01.323Z,6.61
2023-01-17T12:25:15.112Z,6.95
2023-01-17T12:30:32.724Z,6.50
2023-01-17T12:35:38.578Z,6.33
2023-01-17T12:40:45.757Z,6.12
2023-01-17T12:45:48.034Z,5.97
2023-01-17T12:50:51.370Z,5.68
2023-01-17T12:55:57.463Z,5.57
2023-01-17T13:01:01.641Z,5.58
2023-01-17T13:06:03.598Z,5.38
2023-01-17T13:11:08.481Z,5.64
2023-01-17T13:16:14.894Z,5.78
2023-01-17T13:21:28.241Z,5.61
2023-01-17T13:26:36.301Z,5.45
2023-01-17T13:31:44.700Z,5.18
2023-01-17T13:36:53.862Z,5.05
2023-01-17T13:42:06.149Z,4.97
2023-01-17T13:47:40.302Z,4.99
2023-01-17T13:52:41.944Z,5.08
2023-01-17T13:57:46.578Z,5.63
2023-01-17T14:02:51.257Z,6.20
2023-01-17T14:07:54.808Z,6.78
2023-01-17T14:12:58.886Z,6.79
2023-01-17T14:18:01.042Z,6.44
2023-01-17T14:23:04.137Z,6.06
2023-01-17T14:28:18.990Z,5.92
2023-01-17T14:33:25.459Z,5.67
2023-01-17T14:38:27.890Z,5.38
2023-01-17T14:43:32.953Z,5.13
2023-01-17T14:48:34.631Z,4.96
2023-01-17T14:53:36.283Z,4.84
2023-01-17T14:58:39.466Z,4.78
2023-01-17T15:03:43.085Z,4.74
2023-01-17T15:08:44.861Z,4.71
2023-01-17T15:13:49.823Z,4.68
2023-01-17T15:18:52.251Z,4.66
2023-01-17T15:23:55.107Z,4.59
2023-01-17T15:29:02.123Z,4.47
2023-01-17T15:34:05.731Z,4.37
2023-01-17T15:39:17.319Z,4.24
2023-01-17T15:44:31.117Z,4.18
2023-01-17T15:49:37.817Z,4.11
2023-01-17T15:54:47.308Z,4.06
2023-01-17T15:59:55.991Z,4.03
2023-01-17T16:04:57.902Z,3.97
2023-01-17T16:10:06.789Z,3.92
2023-01-17T16:15:13.420Z,3.85
2023-01-17T16:20:20.295Z,3.79
2023-01-17T16:25:22.888Z,3.74
2023-01-17T16:30:25.995Z,3.70
2023-01-17T16:35:29.266Z,3.62
2023-01-17T16:40:31.758Z,3.53
2023-01-17T16:45:38.906Z,3.51
2023-01-17T16:50:41.050Z,3.51
2023-01-17T16:55:42.814Z,3.47
2023-01-17T17:00:45.851Z,3.37
2023-01-17T17:05:54.483Z,3.33
2023-01-17T17:11:07.939Z,3.16
2023-01-17T17:16:12.805Z,3.14
2023-01-17T17:21:14.764Z,3.10
2023-01-17T17:26:16.610Z,3.03
2023-01-17T17:31:19.932Z,2.99
2023-01-17T17:36:21.675Z,2.99
2023-01-17T17:41:24.602Z,2.96
2023-01-17T17:46:29.039Z,2.92
2023-01-17T17:51:31.477Z,2.89
2023-01-17T17:56:33.465Z,2.85
2023-01-17T18:01:40.897Z,2.83
2023-01-17T18:06:42.753Z,2.84
2023-01-17T18:11:44.501Z,2.80
2023-01-17T18:16:47.710Z,2.80
2023-01-17T18:21:50.325Z,2.76
2023-01-17T18:26:52.743Z,2.76
2023-01-17T18:31:55.953Z,2.70
2023-01-17T18:36:57.763Z,2.66
2023-01-17T18:41:59.532Z,2.62
2023-01-17T18:47:04.680Z,2.60
2023-01-17T18:52:07.940Z,2.60
2023-01-17T18:57:09.598Z,2.57
2023-01-17T19:02:12.819Z,2.47
2023-01-17T19:07:15.114Z,2.33
2023-01-17T19:12:17.353Z,2.18
2023-01-17T19:17:21.199Z,2.17
2023-01-17T19:22:23.479Z,2.16
2023-01-17T19:27:26.012Z,2.10
2023-01-17T19:32:29.008Z,2.06
2023-01-17T19:37:30.724Z,2.05
2023-01-17T19:42:32.401Z,2.03
2023-01-17T19:47:35.438Z,1.99
2023-01-17T19:52:37.129Z,1.90
2023-01-17T19:57:40.458Z,1.81
2023-01-17T20:02:43.685Z,1.71
2023-01-17T20:07:45.648Z,1.62
2023-01-17T20:12:47.362Z,1.63
2023-01-17T20:17:50.385Z,1.60
2023-01-17T20:22:52.122Z,1.52
2023-01-17T20:27:54.828Z,1.50
2023-01-17T20:32:58.547Z,1.46
2023-01-17T20:38:00.267Z,1.43
2023-01-17T20:43:02.036Z,1.47
2023-01-17T20:48:05.348Z,1.47
2023-01-17T20:53:07.107Z,1.41
2023-01-17T20:58:08.819Z,1.22
2023-01-17T21:03:12.448Z,1.21
2023-01-17T21:08:17.170Z,1.27
2023-01-17T21:13:20.581Z,1.25
2023-01-17T21:18:24.396Z,1.25
2023-01-17T21:23:29.196Z,1.18
2023-01-17T21:28:33.049Z,1.05
2023-01-17T21:33:36.097Z,1.02
2023-01-17T21:38:38.853Z,1.04
2023-01-17T21:43:40.628Z,1.04
2023-01-17T21:48:44.432Z,1.03
2023-01-17T21:53:46.326Z,1.00
2023-01-17T21:58:53.239Z,0.87
2023-01-17T22:03:57.061Z,0.73
2023-01-17T22:08:59.070Z,0.77
2023-01-17T22:14:02.589Z,0.75
2023-01-17T22:19:05.779Z,0.65
2023-01-17T22:24:07.744Z,0.67
2023-01-17T22:29:10.545Z,0.71
2023-01-17T22:34:15.365Z,0.71
2023-01-17T22:39:17.214Z,0.72
2023-01-17T22:44:19.051Z,0.74
2023-01-17T22:49:23.505Z,0.71
2023-01-17T22:54:25.205Z,0.66
2023-01-17T22:59:26.942Z,0.53
2023-01-17T23:04:30.368Z,0.44
2023-01-17T23:09:32.183Z,0.49
2023-01-17T23:14:53.370Z,0.50
2023-01-17T23:19:56.406Z,0.52
2023-01-17T23:24:58.934Z,0.59
2023-01-17T23:30:00.805Z,0.52
2023-01-17T23:35:04.520Z,0.56
2023-01-17T23:40:07.352Z,0.56
2023-01-17T23:45:10.252Z,0.54
2023-01-17T23:50:13.435Z,0.58
2023-01-17T23:55:15.207Z,0.63
